createdAt,value
2022-12-08T00:03:55.762Z,8.75
2022-12-08T00:09:22.171Z,7.68
2022-12-08T00:14:27.561Z,9.20
2022-12-08T00:19:34.007Z,9.77
2022-12-08T00:24:44.196Z,8.70
2022-12-08T00:29:49.654Z,9.77
2022-12-08T00:34:53.258Z,9.25
2022-12-08T00:39:58.501Z,8.85
2022-12-08T00:45:02.216Z,7.40
2022-12-08T00:50:06.880Z,8.70
2022-12-08T00:55:13.118Z,10.55
2022-12-08T01:00:18.497Z,8.20
2022-12-08T01:05:22.022Z,9.73
2022-12-08T01:10:26.673Z,11.05
2022-12-08T01:15:30.224Z,9.25
2022-12-08T01:20:36.598Z,9.45
2022-12-08T01:25:41.229Z,8.02
2022-12-08T01:30:47.374Z,9.40
2022-12-08T01:35:50.895Z,8.95
2022-12-08T01:40:55.874Z,8.70
2022-12-08T01:45:59.909Z,9.43
2022-12-08T01:51:04.434Z,8.73
2022-12-08T01:56:10.496Z,9.23
2022-12-08T02:01:14.305Z,7.30
2022-12-08T02:06:17.782Z,9.75
2022-12-08T02:11:22.614Z,9.48
2022-12-08T02:16:34.877Z,10.02
2022-12-08T02:21:45.689Z,9.68
2022-12-08T02:27:18.150Z,9.20
2022-12-08T02:32:38.419Z,9.73
2022-12-08T02:37:48.595Z,9.15
2022-12-08T02:42:55.274Z,9.68
2022-12-08T02:47:59.112Z,9.57
2022-12-08T02:58:29.792Z,8.88
2022-12-08T03:03:37.251Z,9.35
2022-12-08T03:08:43.659Z,8.88
2022-12-08T03:13:47.889Z,6.88
2022-12-08T03:18:54.501Z,9.15
2022-12-08T03:23:59.257Z,9.23
2022-12-08T03:29:02.417Z,9.32
2022-12-08T03:34:07.405Z,9.25
2022-12-08T03:39:12.655Z,10.20
2022-12-08T03:44:16.585Z,8.75
2022-12-08T03:49:19.952Z,10.02
2022-12-08T03:54:43.496Z,9.27
2022-12-08T03:59:47.498Z,9.20
2022-12-08T04:04:51.266Z,8.75
2022-12-08T04:09:55.983Z,9.57
2022-12-08T04:15:00.196Z,7.97
2022-12-08T04:20:03.931Z,8.18
2022-12-08T04:25:09.849Z,6.30
2022-12-08T04:30:13.402Z,9.25
2022-12-08T04:35:16.945Z,7.97
2022-12-08T04:40:23.901Z,7.35
2022-12-08T04:45:27.257Z,7.10
2022-12-08T04:50:30.781Z,5.97
2022-12-08T04:55:35.605Z,7.00
2022-12-08T05:00:39.023Z,6.72
2022-12-08T05:05:43.164Z,6.90
2022-12-08T05:10:47.912Z,6.30
2022-12-08T05:15:51.175Z,3.60
2022-12-08T05:20:54.668Z,5.85
2022-12-08T05:25:59.606Z,4.63
2022-12-08T05:31:03.048Z,5.53
2022-12-08T05:36:07.502Z,4.68
2022-12-08T05:41:14.336Z,5.25
2022-12-08T05:46:20.337Z,5.30
2022-12-08T05:51:25.065Z,4.93
2022-12-08T05:56:29.902Z,4.63
2022-12-08T06:01:35.288Z,6.22
2022-12-08T06:06:39.099Z,5.60
2022-12-08T06:11:46.623Z,6.18
2022-12-08T06:16:51.489Z,6.97
2022-12-08T06:21:55.389Z,6.07
2022-12-08T06:27:01.227Z,6.25
2022-12-08T06:32:04.826Z,4.78
2022-12-08T06:37:08.350Z,5.78
2022-12-08T06:42:30.440Z,4.93
2022-12-08T06:47:34.046Z,5.25
2022-12-08T06:52:45.695Z,5.15
2022-12-08T06:57:55.522Z,5.65
2022-12-08T07:03:00.391Z,5.78
2022-12-08T07:08:03.673Z,5.60
2022-12-08T07:13:08.227Z,5.72
2022-12-08T07:18:12.417Z,5.13
2022-12-08T07:23:17.087Z,5.40
2022-12-08T07:28:22.021Z,6.22
2022-12-08T07:33:25.611Z,5.05
2022-12-08T07:38:29.142Z,5.45
2022-12-08T07:43:33.880Z,5.63
2022-12-08T07:48:37.428Z,6.28
2022-12-08T07:53:42.726Z,6.63
2022-12-08T07:58:47.624Z,6.07
2022-12-08T08:03:50.764Z,6.72
2022-12-08T08:08:53.947Z,6.00
2022-12-08T08:13:58.720Z,3.10
2022-12-08T08:19:03.016Z,6.05
2022-12-08T08:24:06.931Z,6.07
2022-12-08T08:29:11.521Z,5.70
2022-12-08T08:34:15.453Z,5.32
2022-12-08T08:39:19.243Z,6.13
2022-12-08T08:44:24.414Z,6.53
2022-12-08T08:49:28.887Z,6.07
2022-12-08T08:54:32.080Z,5.22
2022-12-08T08:59:36.570Z,6.22
2022-12-08T09:04:42.358Z,5.10
2022-12-08T09:09:45.765Z,4.47
2022-12-08T09:14:51.102Z,5.57
2022-12-08T09:19:56.044Z,3.72
2022-12-08T09:24:59.454Z,4.57
2022-12-08T09:30:04.718Z,7.57
2022-12-08T09:35:10.278Z,7.22
2022-12-08T09:40:16.445Z,6.78
2022-12-08T09:45:32.864Z,6.35
2022-12-08T09:50:38.067Z,5.03
2022-12-08T09:55:43.581Z,6.22
2022-12-08T10:00:48.510Z,6.82
2022-12-08T10:05:57.050Z,5.00
2022-12-08T10:11:05.578Z,6.30
2022-12-08T10:16:24.253Z,6.53
2022-12-08T10:21:30.531Z,6.35
2022-12-08T10:26:37.238Z,6.30
2022-12-08T10:31:42.115Z,6.90
2022-12-08T10:36:54.006Z,7.18
2022-12-08T10:42:03.683Z,6.20
2022-12-08T10:52:24.004Z,6.28
2022-12-08T10:57:27.456Z,7.32
2022-12-08T11:02:32.366Z,6.72
2022-12-08T11:07:36.256Z,6.47
2022-12-08T11:12:39.885Z,7.75
2022-12-08T11:17:46.104Z,7.15
2022-12-08T11:22:55.260Z,7.72
2022-12-08T11:28:00.285Z,6.90
2022-12-08T11:33:16.081Z,7.32
2022-12-08T11:38:22.829Z,6.18
2022-12-08T11:43:29.839Z,6.05
2022-12-08T11:48:37.573Z,6.78
2022-12-08T11:53:44.887Z,7.38
2022-12-08T11:58:50.670Z,5.60
2022-12-08T12:04:02.528Z,6.82
2022-12-08T12:09:10.493Z,5.60
2022-12-08T12:14:22.104Z,6.55
2022-12-08T12:19:27.214Z,6.65
2022-12-08T12:24:36.003Z,6.28
2022-12-08T12:29:40.638Z,6.25
2022-12-08T12:34:50.261Z,5.80
2022-12-08T12:45:25.512Z,5.93
2022-12-08T12:50:48.105Z,7.25
2022-12-08T12:55:56.439Z,5.70
2022-12-08T13:01:36.995Z,5.95
2022-12-08T13:06:43.230Z,5.50
2022-12-08T13:11:49.922Z,5.40
2022-12-08T13:16:54.272Z,5.60
2022-12-08T13:21:59.866Z,5.20
2022-12-08T13:27:35.649Z,5.80
2022-12-08T13:33:23.791Z,5.50
2022-12-08T13:38:22.679Z,5.05
2022-12-08T13:43:41.319Z,5.95
2022-12-08T13:59:47.265Z,5.05
2022-12-08T14:10:19.591Z,5.95
2022-12-08T14:15:22.908Z,4.97
2022-12-08T14:20:28.247Z,5.57
2022-12-08T14:25:33.776Z,5.60
2022-12-08T14:30:38.781Z,6.13
2022-12-08T14:35:42.834Z,6.15
2022-12-08T14:40:48.980Z,3.17
2022-12-08T14:45:54.436Z,4.38
2022-12-08T14:51:03.073Z,6.18
2022-12-08T14:56:12.841Z,3.97
2022-12-08T15:01:17.820Z,3.85
2022-12-08T15:06:21.949Z,3.08
2022-12-08T15:11:33.370Z,2.58
2022-12-08T15:16:44.944Z,3.00
2022-12-08T15:21:48.552Z,3.35
2022-12-08T15:26:53.581Z,3.55
2022-12-08T15:31:58.242Z,2.90
2022-12-08T15:37:01.464Z,3.53
2022-12-08T15:42:07.943Z,3.10
2022-12-08T15:47:16.254Z,3.40
2022-12-08T15:52:21.619Z,3.15
2022-12-08T16:03:22.579Z,3.15
2022-12-08T16:08:44.544Z,2.35
2022-12-08T16:14:12.251Z,3.35
2022-12-08T16:19:21.776Z,3.15
2022-12-08T16:24:25.081Z,3.95
2022-12-08T16:29:29.746Z,4.03
2022-12-08T16:34:33.166Z,3.53
2022-12-08T16:39:44.023Z,3.63
2022-12-08T16:44:50.225Z,3.58
2022-12-08T16:55:47.471Z,3.40
2022-12-08T17:00:52.843Z,3.65
2022-12-08T17:05:56.291Z,3.83
2022-12-08T17:11:14.130Z,4.82
2022-12-08T17:16:19.781Z,3.78
2022-12-08T17:21:23.086Z,4.72
2022-12-08T17:26:27.319Z,4.43
2022-12-08T17:31:33.406Z,5.47
2022-12-08T17:36:36.873Z,5.13
2022-12-08T17:41:40.706Z,4.50
2022-12-08T17:46:52.073Z,4.82
2022-12-08T17:51:57.786Z,5.00
2022-12-08T17:57:01.374Z,5.55
2022-12-08T18:02:06.710Z,6.32
2022-12-08T18:07:11.281Z,5.40
2022-12-08T18:12:19.299Z,5.82
2022-12-08T18:17:26.975Z,5.80
2022-12-08T18:22:31.418Z,5.68
2022-12-08T18:27:39.896Z,5.72
2022-12-08T18:32:52.881Z,2.88
2022-12-08T18:38:00.621Z,5.45
2022-12-08T18:43:04.112Z,5.90
2022-12-08T18:48:09.470Z,5.95
2022-12-08T18:53:13.139Z,5.25
2022-12-08T18:58:16.420Z,5.63
2022-12-08T19:03:21.211Z,5.68
2022-12-08T19:08:31.055Z,5.15
2022-12-08T19:13:34.806Z,7.15
2022-12-08T19:18:40.252Z,5.47
2022-12-08T19:23:43.603Z,5.05
2022-12-08T19:28:47.141Z,5.90
2022-12-08T19:33:52.862Z,7.20
2022-12-08T19:39:13.881Z,5.65
2022-12-08T19:44:38.228Z,4.22
2022-12-08T19:49:42.943Z,5.78
2022-12-08T19:54:46.875Z,5.68
2022-12-08T19:59:56.157Z,4.65
2022-12-08T20:05:01.634Z,5.55
2022-12-08T20:10:06.768Z,6.43
2022-12-08T20:15:11.301Z,6.40
2022-12-08T20:20:17.626Z,6.07
2022-12-08T20:25:22.583Z,5.63
2022-12-08T20:30:26.432Z,6.68
2022-12-08T20:35:31.268Z,6.13
2022-12-08T20:40:35.129Z,6.03
2022-12-08T20:45:40.113Z,5.80
2022-12-08T20:50:45.034Z,6.32
2022-12-08T20:55:48.573Z,6.80
2022-12-08T21:00:52.931Z,6.80
2022-12-08T21:05:58.766Z,8.25
2022-12-08T21:11:02.079Z,6.65
2022-12-08T21:16:06.033Z,6.80
2022-12-08T21:21:13.092Z,6.95
2022-12-08T21:26:18.164Z,6.80
2022-12-08T21:31:23.253Z,7.07
2022-12-08T21:36:29.859Z,7.25
2022-12-08T21:41:51.019Z,7.90
2022-12-08T21:46:56.603Z,8.07
2022-12-08T21:52:01.938Z,7.75
2022-12-08T21:57:05.565Z,6.68
2022-12-08T22:02:10.567Z,7.32
2022-12-08T22:07:17.434Z,6.60
2022-12-08T22:12:21.215Z,6.20
2022-12-08T22:17:25.167Z,6.35
2022-12-08T22:22:33.285Z,6.75
2022-12-08T22:27:37.183Z,7.03
2022-12-08T22:32:42.382Z,6.75
2022-12-08T22:37:50.842Z,6.78
2022-12-08T22:42:54.425Z,8.00
2022-12-08T22:47:57.791Z,7.90
2022-12-08T22:53:02.692Z,7.50
2022-12-08T22:58:05.811Z,7.28
2022-12-08T23:03:09.750Z,7.95
2022-12-08T23:08:15.393Z,11.32
2022-12-08T23:13:18.690Z,8.10
2022-12-08T23:18:23.628Z,7.75
2022-12-08T23:23:28.984Z,8.07
2022-12-08T23:28:32.855Z,7.35
2022-12-08T23:33:36.822Z,8.00
2022-12-08T23:38:43.867Z,8.52
2022-12-08T23:43:47.919Z,8.77
2022-12-08T23:48:54.937Z,6.68
2022-12-08T23:53:59.844Z,6.93
2022-12-08T23:59:05.329Z,6.57
